Time;durP1;ratioP1;P1;durP2;ratioP2;P2;SDS_P1;SDS_P2;PMS_P1;PMS_P2;Temp;Humidity;BMP_temperature;BMP_pressure;BME280_temperature;BME280_humidity;BME280_pressure;Samples;Min_cycle;Max_cycle;Signal;HPM_P1;HPM_P2
2023/01/26 00:06:06;;;;;;;10.60;6.03;;;8.50;84.10;;;;;;10942339;32;20431;-75
2023/01/26 00:12:08;;;;;;;13.25;7.50;;;8.40;84.00;;;;;;10941885;32;20035;-75
2023/01/26 00:18:10;;;;;;;13.02;9.52;;;8.30;83.90;;;;;;10941405;32;20440;-75
2023/01/26 00:24:11;;;;;;;13.50;8.90;;;8.20;83.80;;;;;;10944991;27;20039;-75
2023/01/26 00:30:14;;;;;;;10.82;7.03;;;8.20;84.30;;;;;;10941600;32;20373;-75
2023/01/26 00:36:17;;;;;;;14.85;9.18;;;8.20;84.30;;;;;;10941509;32;20019;-74
2023/01/26 00:42:19;;;;;;;13.77;8.82;;;8.00;84.30;;;;;;10941410;32;20049;-75
2023/01/26 00:48:22;;;;;;;12.55;8.13;;;8.00;83.80;;;;;;10940069;32;20046;-74
2023/01/26 00:54:24;;;;;;;11.05;7.12;;;8.00;83.40;;;;;;10941301;32;20045;-74
2023/01/26 01:00:26;;;;;;;9.90;6.25;;;8.00;83.60;;;;;;10927797;32;20042;-74
2023/01/26 01:06:28;;;;;;;14.45;7.78;;;8.00;83.80;;;;;;10941098;32;20019;-74
2023/01/26 01:12:29;;;;;;;13.50;8.45;;;7.90;83.50;;;;;;10940853;32;20099;-74
2023/01/26 01:18:31;;;;;;;11.77;7.10;;;8.00;83.60;;;;;;10940926;32;20396;-74
2023/01/26 01:24:34;;;;;;;11.07;7.10;;;7.90;83.90;;;;;;10927066;32;20176;-74
2023/01/26 01:30:37;;;;;;;9.30;5.78;;;7.80;83.90;;;;;;10940634;32;20041;-74
2023/01/26 01:36:39;;;;;;;12.02;8.32;;;7.70;83.90;;;;;;10940235;32;20053;-74
2023/01/26 01:42:48;;;;;;;9.40;5.35;;;7.60;83.70;;;;;;10947310;32;20053;-74
2023/01/26 01:48:57;;;;;;;11.93;8.45;;;7.60;83.70;;;;;;10933244;32;20050;-74
2023/01/26 01:55:06;;;;;;;7.82;4.55;;;7.60;83.70;;;;;;10946718;32;20476;-74
2023/01/26 02:01:09;;;;;;;7.73;4.87;;;7.60;83.60;;;;;;10945812;32;20031;-74
2023/01/26 02:07:13;;;;;;;8.63;5.25;;;7.50;83.50;;;;;;10946301;32;20015;-74
2023/01/26 02:13:17;;;;;;;9.02;5.90;;;7.50;83.70;;;;;;10946193;32;20294;-74
2023/01/26 02:19:35;;;;;;;8.80;5.68;;;7.50;83.80;;;;;;10946053;32;20006;-74
2023/01/26 02:25:47;;;;;;;7.65;4.93;;;7.50;84.40;;;;;;10932539;32;20432;-74
2023/01/26 02:31:49;;;;;;;10.30;5.18;;;7.70;84.50;;;;;;10945499;32;20353;-74
2023/01/26 02:37:55;;;;;;;7.55;3.35;;;7.70;84.80;;;;;;10931996;32;20045;-74
2023/01/26 02:44:03;;;;;;;6.30;3.72;;;7.70;84.60;;;;;;10945274;32;20053;-74
2023/01/26 02:50:08;;;;;;;6.03;3.72;;;7.60;84.60;;;;;;10944594;32;20023;-74
2023/01/26 02:56:10;;;;;;;10.57;4.72;;;7.50;84.60;;;;;;10931331;32;20352;-74
2023/01/26 03:02:26;;;;;;;8.18;4.37;;;7.50;84.80;;;;;;10944615;32;20015;-74
2023/01/26 03:08:29;;;;;;;7.22;4.12;;;7.60;85.40;;;;;;10930589;32;20427;-74
2023/01/26 03:14:31;;;;;;;6.97;3.47;;;7.50;85.20;;;;;;10940603;32;20027;-74
2023/01/26 03:33:16;;;;;;;9.45;4.18;;;7.50;85.30;;;;;;10879043;32;20073;-74
2023/01/26 03:58:20;;;;;;;10.73;4.95;;;7.40;84.80;;;;;;10939187;32;20031;-74
2023/01/26 04:10:43;;;;;;;8.15;4.53;;;7.40;85.10;;;;;;10928318;32;20340;-74
2023/01/26 04:23:05;;;;;;;8.60;4.68;;;7.30;84.80;;;;;;10928318;32;20383;-74
2023/01/26 04:29:11;;;;;;;6.12;3.72;;;7.30;84.40;;;;;;10937995;32;20411;-74
2023/01/26 04:35:13;;;;;;;7.07;4.25;;;7.30;84.20;;;;;;10928047;32;20058;-74
2023/01/26 04:41:16;;;;;;;7.78;4.50;;;7.40;83.80;;;;;;10941643;32;20023;-74
2023/01/26 04:47:19;;;;;;;7.18;4.03;;;7.50;83.50;;;;;;10937412;32;20045;-74
2023/01/26 04:53:22;;;;;;;6.07;3.70;;;7.60;83.30;;;;;;10938467;32;20031;-74
2023/01/26 04:59:43;;;;;;;7.85;5.03;;;7.60;83.10;;;;;;10941365;32;20053;-74
2023/01/26 05:05:49;;;;;;;8.77;5.30;;;7.60;82.80;;;;;;10941238;32;20023;-75
2023/01/26 05:11:52;;;;;;;11.63;4.57;;;7.60;82.40;;;;;;10942458;32;20057;-75
2023/01/26 05:17:58;;;;;;;8.02;4.03;;;7.60;82.30;;;;;;10948220;32;20023;-75
2023/01/26 05:24:01;;;;;;;12.98;8.27;;;7.60;81.90;;;;;;10931504;32;20353;-75
2023/01/26 05:30:04;;;;;;;12.65;6.87;;;7.60;81.50;;;;;;10947588;32;20046;-75
2023/01/26 05:36:07;;;;;;;10.80;6.65;;;7.70;81.40;;;;;;10934138;32;20350;-75
2023/01/26 05:42:13;;;;;;;8.38;4.60;;;7.70;81.20;;;;;;10947279;32;20045;-75
2023/01/26 05:48:15;;;;;;;7.07;4.68;;;7.70;81.20;;;;;;10932767;32;20058;-75
2023/01/26 05:54:18;;;;;;;12.85;7.05;;;7.70;81.20;;;;;;10933739;32;20050;-75
2023/01/26 06:00:21;;;;;;;12.65;7.78;;;7.70;81.10;;;;;;10946781;32;20049;-75
2023/01/26 06:06:24;;;;;;;11.32;6.32;;;7.70;81.00;;;;;;10946529;32;20057;-75
2023/01/26 06:12:30;;;;;;;11.63;7.97;;;7.70;80.80;;;;;;10932095;32;20066;-75
2023/01/26 06:18:32;;;;;;;10.38;6.70;;;7.60;80.60;;;;;;10946131;32;20046;-75
2023/01/26 06:24:35;;;;;;;13.23;7.47;;;7.60;80.40;;;;;;10931826;32;20053;-75
2023/01/26 06:30:38;;;;;;;8.13;5.57;;;7.60;80.30;;;;;;10945674;32;20041;-75
2023/01/26 06:36:41;;;;;;;9.63;6.35;;;7.60;80.10;;;;;;10941229;32;20058;-75
2023/01/26 06:42:49;;;;;;;14.73;8.63;;;7.60;79.90;;;;;;10945275;32;20015;-75
2023/01/26 06:48:51;;;;;;;13.85;8.23;;;7.60;79.80;;;;;;10945111;32;20049;-75
2023/01/26 06:54:56;;;;;;;11.82;8.10;;;7.70;79.50;;;;;;10944233;32;20333;-75
2023/01/26 07:01:00;;;;;;;16.35;10.90;;;7.70;79.10;;;;;;10924568;32;20039;-75
2023/01/26 07:07:02;;;;;;;10.73;7.07;;;7.80;79.00;;;;;;10940385;32;20031;-75
2023/01/26 07:13:05;;;;;;;13.93;9.85;;;7.90;78.80;;;;;;10936232;32;20080;-75
2023/01/26 07:19:06;;;;;;;10.27;7.53;;;7.80;78.90;;;;;;10927380;32;20097;-75
2023/01/26 07:25:08;;;;;;;16.70;10.73;;;7.80;79.10;;;;;;10942521;32;20027;-75
2023/01/26 07:31:11;;;;;;;13.45;8.82;;;7.60;79.30;;;;;;10937788;32;20062;-76
2023/01/26 07:37:14;;;;;;;15.35;10.55;;;7.70;79.50;;;;;;10924497;32;20038;-75
2023/01/26 07:43:22;;;;;;;17.00;12.15;;;7.70;79.40;;;;;;10940537;32;20051;-75
2023/01/26 07:49:25;;;;;;;20.20;11.75;;;7.70;79.30;;;;;;10924331;32;20041;-75
2023/01/26 07:55:27;;;;;;;15.93;9.98;;;7.60;79.60;;;;;;10939307;32;20077;-75
2023/01/26 08:01:29;;;;;;;13.02;8.45;;;7.40;80.00;;;;;;10902539;32;20035;-75
2023/01/26 08:07:31;;;;;;;15.15;9.90;;;7.50;80.90;;;;;;10903671;32;20436;-75
2023/01/26 08:13:34;;;;;;;17.77;12.77;;;7.60;81.00;;;;;;10890217;32;20061;-75
2023/01/26 08:19:36;;;;;;;18.83;11.15;;;7.70;81.60;;;;;;10904019;32;20020;-75
2023/01/26 08:25:38;;;;;;;14.40;8.60;;;7.80;82.40;;;;;;10934943;27;20062;-75
2023/01/26 08:31:40;;;;;;;12.35;6.43;;;7.80;83.10;;;;;;10941026;32;20022;-75
2023/01/26 08:37:42;;;;;;;14.27;8.02;;;7.90;83.60;;;;;;10940613;32;20052;-75
2023/01/26 08:43:44;;;;;;;10.68;6.07;;;8.00;83.90;;;;;;10927279;32;20046;-75
2023/01/26 08:49:47;;;;;;;11.18;6.68;;;8.00;83.90;;;;;;10948331;32;20003;-76
2023/01/26 08:55:49;;;;;;;7.80;4.68;;;7.90;84.10;;;;;;10947963;32;20027;-75
2023/01/26 09:01:51;;;;;;;15.32;7.70;;;7.90;84.30;;;;;;10947899;32;20041;-76
2023/01/26 09:08:17;;;;;;;11.18;6.20;;;7.90;84.50;;;;;;10934095;32;20034;-76
2023/01/26 09:14:19;;;;;;;15.05;8.07;;;7.80;84.70;;;;;;10947494;32;20019;-76
2023/01/26 09:20:33;;;;;;;8.18;4.10;;;7.60;85.30;;;;;;10947086;32;20019;-76
2023/01/26 09:26:35;;;;;;;10.60;5.72;;;7.70;85.90;;;;;;10946228;32;20022;-75
2023/01/26 09:32:37;;;;;;;10.05;5.87;;;7.80;85.90;;;;;;10947129;32;20019;-75
2023/01/26 09:39:08;;;;;;;10.88;6.10;;;7.90;86.10;;;;;;10947025;32;20353;-75
2023/01/26 09:45:34;;;;;;;9.25;6.30;;;8.10;86.00;;;;;;10946487;32;20030;-76
2023/01/26 09:51:52;;;;;;;11.07;6.78;;;8.10;85.80;;;;;;10932722;32;20011;-77
2023/01/26 09:58:15;;;;;;;8.38;4.65;;;8.10;86.30;;;;;;10931794;32;20019;-77
2023/01/26 10:05:41;;;;;;;14.43;7.95;;;7.80;85.70;;;;;;10756698;33;20043;-75
2023/01/26 10:12:49;;;;;;;11.85;6.80;;;7.60;85.80;;;;;;10750687;33;20055;-76
2023/01/26 10:19:19;;;;;;;10.55;7.35;;;7.30;84.20;;;;;;10753310;33;20039;-76
2023/01/26 10:25:39;;;;;;;11.12;7.40;;;7.40;85.50;;;;;;10751778;33;20055;-77
2023/01/26 10:31:43;;;;;;;9.25;5.47;;;7.50;85.40;;;;;;10758412;32;20103;-77
2023/01/26 10:38:56;;;;;;;8.88;5.07;;;7.70;85.60;;;;;;10680938;33;20060;-76
2023/01/26 10:45:01;;;;;;;8.07;4.40;;;8.00;86.30;;;;;;10692563;33;20109;-76
2023/01/26 10:51:30;;;;;;;11.88;6.68;;;8.40;86.20;;;;;;10802659;32;20036;-77
2023/01/26 10:57:40;;;;;;;8.95;5.18;;;8.50;85.40;;;;;;10799405;32;20449;-76
2023/01/26 11:04:18;;;;;;;8.30;5.37;;;8.30;85.10;;;;;;10806301;33;20043;-76
2023/01/26 11:10:31;;;;;;;7.93;4.33;;;8.40;85.20;;;;;;10803229;32;20064;-76
2023/01/26 11:16:34;;;;;;;13.00;5.85;;;8.60;84.20;;;;;;10887334;32;20050;-77
2023/01/26 11:22:43;;;;;;;8.25;5.05;;;8.60;83.20;;;;;;10904494;32;20050;-74
2023/01/26 11:29:20;;;;;;;5.53;2.70;;;8.80;84.10;;;;;;10903954;32;20045;-74
2023/01/26 11:35:30;;;;;;;7.43;3.95;;;9.10;82.90;;;;;;10878538;32;20069;-74
2023/01/26 11:41:56;;;;;;;7.12;4.12;;;9.10;81.60;;;;;;10904618;32;20020;-77
2023/01/26 11:48:01;;;;;;;5.75;2.65;;;9.20;82.60;;;;;;10891886;32;20054;-73
2023/01/26 11:54:25;;;;;;;5.47;2.70;;;9.70;84.30;;;;;;10904201;32;20345;-77
2023/01/26 12:01:01;;;;;;;7.82;4.28;;;9.90;84.40;;;;;;10900861;32;20042;-76
2023/01/26 12:07:12;;;;;;;10.57;5.80;;;9.90;84.90;;;;;;10826002;32;20335;-75
2023/01/26 12:13:41;;;;;;;12.45;6.65;;;9.70;83.50;;;;;;10812682;32;20085;-76
2023/01/26 12:19:50;;;;;;;8.00;4.87;;;9.80;84.40;;;;;;10823903;32;20046;-75
2023/01/26 12:25:57;;;;;;;9.43;5.10;;;9.90;84.50;;;;;;10841212;32;20043;-75
2023/01/26 12:32:09;;;;;;;9.10;5.10;;;10.00;84.30;;;;;;10851312;32;20027;-75
2023/01/26 12:38:22;;;;;;;11.27;5.90;;;10.20;84.60;;;;;;10860469;32;20357;-76
2023/01/26 12:44:45;;;;;;;10.55;5.25;;;9.90;82.00;;;;;;10899828;32;20416;-75
2023/01/26 12:51:32;;;;;;;10.95;5.95;;;9.80;83.80;;;;;;10902587;32;20439;-75
2023/01/26 12:57:43;;;;;;;6.93;4.15;;;10.00;84.70;;;;;;10902928;32;20046;-76
2023/01/26 13:03:51;;;;;;;8.38;4.45;;;10.20;84.30;;;;;;10889553;32;20053;-75
2023/01/26 13:10:14;;;;;;;10.90;6.68;;;10.20;84.80;;;;;;10902730;32;20058;-75
2023/01/26 13:16:21;;;;;;;6.12;3.08;;;10.30;85.30;;;;;;10903294;32;20019;-75
2023/01/26 13:22:26;;;;;;;11.50;3.85;;;10.50;85.80;;;;;;10902959;32;20019;-75
2023/01/26 13:28:28;;;;;;;8.13;3.58;;;10.60;85.60;;;;;;10903014;32;20081;-75
2023/01/26 13:34:44;;;;;;;10.68;5.25;;;10.80;85.40;;;;;;10908766;32;20050;-75
2023/01/26 13:40:49;;;;;;;8.63;4.53;;;10.90;85.90;;;;;;10907071;32;20031;-76
2023/01/26 13:46:58;;;;;;;6.10;3.55;;;10.90;85.60;;;;;;10895737;32;20034;-75
2023/01/26 13:53:51;;;;;;;8.18;4.20;;;11.00;86.20;;;;;;10894621;32;20357;-75
2023/01/26 13:59:58;;;;;;;8.27;5.10;;;11.20;86.80;;;;;;10901822;32;20431;-75
2023/01/26 14:06:21;;;;;;;8.77;5.03;;;11.20;86.70;;;;;;10907243;32;20057;-75
2023/01/26 14:12:45;;;;;;;8.35;5.07;;;11.20;87.60;;;;;;10906261;32;20027;-75
2023/01/26 14:18:48;;;;;;;7.10;4.28;;;11.00;87.60;;;;;;10907689;32;20015;-74
2023/01/26 14:24:51;;;;;;;7.00;4.03;;;11.10;88.90;;;;;;10907258;32;20019;-75
2023/01/26 14:31:01;;;;;;;9.15;5.07;;;11.30;88.30;;;;;;10907056;32;20028;-76
2023/01/26 14:37:21;;;;;;;7.68;4.95;;;11.60;88.20;;;;;;10906682;32;20342;-74
2023/01/26 14:43:28;;;;;;;7.25;4.00;;;11.70;87.90;;;;;;10893211;32;20044;-75
2023/01/26 14:49:47;;;;;;;8.85;4.37;;;11.70;88.10;;;;;;10905591;32;20019;-75
2023/01/26 14:55:51;;;;;;;8.60;5.00;;;11.70;88.40;;;;;;10906376;32;20023;-75
2023/01/26 15:02:15;;;;;;;8.30;5.07;;;12.20;87.10;;;;;;10906321;32;20319;-76
2023/01/26 15:08:21;;;;;;;7.45;4.60;;;12.70;86.40;;;;;;10906286;32;20042;-75
2023/01/26 15:14:58;;;;;;;7.85;4.80;;;12.90;85.50;;;;;;10905910;32;20019;-75
2023/01/26 15:21:05;;;;;;;21.55;6.93;;;13.00;85.60;;;;;;10902846;32;20035;-76
2023/01/26 15:27:11;;;;;;;9.38;4.82;;;13.10;85.50;;;;;;10893100;32;20046;-76
2023/01/26 15:33:36;;;;;;;6.97;4.55;;;12.90;85.40;;;;;;10905496;32;20032;-75
2023/01/26 15:39:38;;;;;;;8.45;5.68;;;12.80;85.90;;;;;;10892053;32;20437;-75
2023/01/26 15:45:49;;;;;;;7.55;5.10;;;12.60;86.40;;;;;;10891892;32;20049;-75
2023/01/26 15:51:51;;;;;;;8.93;6.05;;;12.20;87.00;;;;;;10904747;32;20031;-75
2023/01/26 15:57:54;;;;;;;10.20;5.97;;;11.50;87.90;;;;;;10900527;32;20019;-74
2023/01/26 16:03:57;;;;;;;11.20;6.93;;;11.10;88.60;;;;;;10903921;32;20027;-75
2023/01/26 16:09:59;;;;;;;10.38;7.35;;;10.70;89.10;;;;;;10904566;32;20027;-75
2023/01/26 16:16:02;;;;;;;10.98;6.85;;;10.30;89.20;;;;;;10904177;32;20310;-75
2023/01/26 16:22:04;;;;;;;11.60;6.55;;;10.10;89.10;;;;;;10530795;27;12312867;-75
2023/01/26 16:28:06;;;;;;;9.85;5.53;;;10.00;88.80;;;;;;10863779;32;20027;-75
2023/01/26 16:34:09;;;;;;;8.23;4.78;;;9.90;88.50;;;;;;10863243;32;20031;-75
2023/01/26 16:40:16;;;;;;;9.70;5.60;;;9.70;88.10;;;;;;10846597;32;20363;-75
2023/01/26 16:46:19;;;;;;;12.32;7.53;;;9.60;87.90;;;;;;10825121;33;20032;-75
2023/01/26 16:52:20;;;;;;;9.93;6.43;;;9.50;87.70;;;;;;10894561;32;20027;-75
2023/01/26 16:58:26;;;;;;;9.10;4.78;;;9.40;87.40;;;;;;10903539;32;20058;-74
2023/01/26 17:04:28;;;;;;;13.00;9.32;;;9.30;87.30;;;;;;10905038;32;20054;-74
2023/01/26 17:10:31;;;;;;;13.10;8.85;;;9.20;87.10;;;;;;10910870;32;20032;-74
2023/01/26 17:16:34;;;;;;;14.10;8.02;;;9.00;87.10;;;;;;10926460;32;20022;-74
2023/01/26 17:22:37;;;;;;;14.93;8.93;;;9.00;87.10;;;;;;10948055;32;20026;-74
2023/01/26 17:28:39;;;;;;;12.02;8.18;;;9.00;87.00;;;;;;10947754;32;20041;-74
2023/01/26 17:34:41;;;;;;;13.13;7.60;;;9.20;87.10;;;;;;10947727;32;20049;-74
2023/01/26 17:40:43;;;;;;;11.40;7.25;;;9.30;86.90;;;;;;10947517;32;20011;-74
2023/01/26 17:46:45;;;;;;;14.15;8.25;;;9.40;86.60;;;;;;10947281;32;20046;-74
2023/01/26 17:52:47;;;;;;;11.40;6.95;;;9.60;86.70;;;;;;10947092;32;20027;-74
2023/01/26 17:58:52;;;;;;;16.30;8.35;;;9.60;86.30;;;;;;10946978;32;20077;-74
2023/01/26 18:04:56;;;;;;;14.77;10.60;;;9.60;86.10;;;;;;10946767;32;20015;-75
2023/01/26 18:11:00;;;;;;;12.65;8.00;;;9.60;86.10;;;;;;10934339;32;20011;-75
2023/01/26 18:17:03;;;;;;;11.88;8.25;;;9.50;85.60;;;;;;10945777;32;20057;-76
2023/01/26 18:23:05;;;;;;;15.13;8.05;;;9.50;86.00;;;;;;10946103;32;20023;-76
2023/01/26 18:29:08;;;;;;;11.55;7.07;;;9.50;85.90;;;;;;10930156;32;20030;-75
2023/01/26 18:35:10;;;;;;;10.25;6.43;;;9.50;85.80;;;;;;10941545;32;20046;-76
2023/01/26 18:41:14;;;;;;;13.68;9.30;;;9.40;85.50;;;;;;10945575;32;20299;-76
2023/01/26 18:47:23;;;;;;;10.23;6.85;;;9.40;85.60;;;;;;10945424;32;20090;-77
2023/01/26 18:53:25;;;;;;;8.48;5.80;;;9.30;85.40;;;;;;10945151;32;20317;-76
2023/01/26 18:59:27;;;;;;;13.27;6.97;;;9.20;85.40;;;;;;10927356;32;20389;-76
2023/01/26 19:05:51;;;;;;;10.05;5.87;;;9.10;84.90;;;;;;10944404;32;20045;-77
2023/01/26 19:11:54;;;;;;;10.95;6.60;;;8.90;84.90;;;;;;10944391;32;20023;-76
2023/01/26 19:17:56;;;;;;;14.30;5.65;;;8.80;85.20;;;;;;10944150;32;20023;-76
2023/01/26 19:24:01;;;;;;;10.20;6.20;;;8.80;85.00;;;;;;10944212;32;20417;-76
2023/01/26 19:30:08;;;;;;;9.40;5.63;;;8.80;85.00;;;;;;10943002;32;20027;-76
2023/01/26 19:36:10;;;;;;;12.77;6.35;;;8.70;85.00;;;;;;10926236;32;20072;-76
2023/01/26 19:42:12;;;;;;;9.73;5.75;;;8.70;84.90;;;;;;10917181;32;20027;-76
2023/01/26 19:48:14;;;;;;;8.48;4.80;;;8.70;85.00;;;;;;10904681;32;20041;-76
2023/01/26 19:54:16;;;;;;;8.65;4.62;;;8.60;84.90;;;;;;10905270;32;20459;-73
2023/01/26 20:00:19;;;;;;;12.35;6.60;;;8.70;84.80;;;;;;10891064;32;20198;-74
2023/01/26 20:06:23;;;;;;;8.25;5.75;;;8.60;84.80;;;;;;10891550;32;20349;-74
2023/01/26 20:12:25;;;;;;;11.15;6.30;;;8.60;85.10;;;;;;10904586;32;20016;-74
2023/01/26 20:18:27;;;;;;;7.75;5.30;;;8.50;85.00;;;;;;10901856;32;20035;-74
2023/01/26 20:24:29;;;;;;;8.73;5.45;;;8.40;85.00;;;;;;10930571;32;20206;-74
2023/01/26 20:30:32;;;;;;;8.60;5.25;;;8.40;85.40;;;;;;10941936;32;20014;-74
2023/01/26 20:36:36;;;;;;;8.45;4.93;;;8.40;85.20;;;;;;10928239;32;20019;-74
2023/01/26 20:42:38;;;;;;;9.48;5.57;;;8.20;85.30;;;;;;10947188;32;20015;-74
2023/01/26 20:48:40;;;;;;;8.95;5.12;;;8.20;84.70;;;;;;10925611;32;20433;-74
2023/01/26 20:55:07;;;;;;;9.75;6.03;;;8.10;84.80;;;;;;10911051;32;20053;-74
2023/01/26 21:01:11;;;;;;;11.55;6.10;;;8.20;84.60;;;;;;10911030;32;20382;-74
2023/01/26 21:07:13;;;;;;;10.25;6.18;;;8.10;84.50;;;;;;10925213;32;20031;-74
2023/01/26 21:13:15;;;;;;;6.75;4.57;;;8.00;84.60;;;;;;10948309;32;20007;-74
2023/01/26 21:19:17;;;;;;;7.70;5.15;;;8.00;84.70;;;;;;10948187;32;20386;-73
2023/01/26 21:25:19;;;;;;;7.00;4.82;;;8.00;84.70;;;;;;10948038;32;20042;-74
2023/01/26 21:31:24;;;;;;;9.45;6.28;;;8.00;84.50;;;;;;10947678;32;20196;-74
2023/01/26 21:37:27;;;;;;;12.35;7.32;;;8.00;84.60;;;;;;10933964;32;20056;-74
2023/01/26 21:43:30;;;;;;;9.57;7.10;;;8.00;84.60;;;;;;10947824;32;20340;-74
2023/01/26 21:49:31;;;;;;;10.05;5.62;;;8.00;84.70;;;;;;10947301;32;20049;-74
2023/01/26 21:55:33;;;;;;;12.20;6.32;;;7.90;84.50;;;;;;10946185;32;20405;-73
2023/01/26 22:01:38;;;;;;;11.65;7.40;;;7.90;84.60;;;;;;10931569;32;20030;-74
2023/01/26 22:07:45;;;;;;;14.98;8.00;;;7.90;84.50;;;;;;10946754;32;20065;-74
2023/01/26 22:13:47;;;;;;;8.38;5.20;;;7.90;84.60;;;;;;10932201;32;20419;-74
2023/01/26 22:19:58;;;;;;;10.82;6.22;;;7.80;84.70;;;;;;10942369;32;20044;-74
2023/01/26 22:26:05;;;;;;;8.82;5.12;;;7.80;84.70;;;;;;10944630;32;20076;-74
2023/01/26 22:32:07;;;;;;;10.95;6.95;;;7.70;84.60;;;;;;10932199;32;20065;-74
2023/01/26 22:38:09;;;;;;;9.57;6.45;;;7.50;84.60;;;;;;10945535;32;20023;-74
2023/01/26 22:44:11;;;;;;;9.75;6.37;;;7.50;84.60;;;;;;10945409;32;20295;-73
2023/01/26 22:50:14;;;;;;;9.45;5.47;;;7.50;84.50;;;;;;10945219;32;20011;-74
2023/01/26 22:56:26;;;;;;;7.75;3.65;;;7.50;84.50;;;;;;10945016;32;20072;-74
2023/01/26 23:02:28;;;;;;;9.65;5.53;;;7.40;84.50;;;;;;10944671;32;20058;-74
2023/01/26 23:08:32;;;;;;;7.95;5.15;;;7.30;84.60;;;;;;10931031;32;20046;-74
2023/01/26 23:14:34;;;;;;;8.23;5.55;;;7.30;84.60;;;;;;10930273;32;20027;-74
2023/01/26 23:20:37;;;;;;;10.70;6.70;;;7.30;84.60;;;;;;10944067;32;20321;-74
2023/01/26 23:26:38;;;;;;;9.50;5.65;;;7.30;84.50;;;;;;10943953;32;20353;-74
2023/01/26 23:32:40;;;;;;;10.63;5.97;;;7.30;84.70;;;;;;10941136;32;20077;-74
2023/01/26 23:38:44;;;;;;;12.23;7.75;;;7.30;85.20;;;;;;10941035;32;20030;-74
2023/01/26 23:44:46;;;;;;;10.77;6.18;;;7.20;85.20;;;;;;10943332;32;20397;-74
2023/01/26 23:50:53;;;;;;;9.35;5.20;;;7.20;85.10;;;;;;10942882;32;20041;-74
2023/01/26 23:56:58;;;;;;;11.80;8.25;;;7.20;84.70;;;;;;10928965;32;20057;-74
